Latest Weather Observations for Orange Airport

IDN60801

Issued at 8:02 pm EST Friday 23 June 2017 (issued every 30 minutes, with the page automatically refreshed every 10 minutes)

About weather observations | Map of weather stations | Latest weather observations for NSW | Other Formats
Station Details ID: 063303 Name: ORANGE AIRPORT AWS Lat: -33.38 Lon: 149.13 Height: 944.65 m
Data from the previous 72 hours. | See also: Recent months at Orange Airport
Date/Time
EST
Temp
°C
App
Temp
°C
Dew
Point
°C
Rel
Hum
%
Delta-T
°C
Wind Press
QNH
hPa
Press
MSL
hPa
Rain since
9am
mm
Dir  Spd
km/h
Gust
km/h
Spd
kts
Gust
kts
23/08:00pm 5.8 0.5 1.7 75 1.7 W 19 24 10 13 1018.2 1018.8 0.0
23/07:30pm 6.4 1.2 2.3 75 1.8 W 19 26 10 14 1018.1 1018.7 0.0
23/07:00pm 6.1 1.3 2.4 77 1.6 WNW 17 22 9 12 1018.1 1018.7 0.0
23/06:30pm 7.0 1.8 2.5 73 2.0 W 19 26 10 14 1017.8 1018.5 0.0
23/06:00pm 7.2 2.3 1.7 68 2.4 W 17 22 9 12 1017.8 1018.5 0.0
23/05:30pm 7.2 2.2 1.1 65 2.6 W 17 22 9 12 1017.8 1018.5 0.0
23/05:00pm 7.6 2.2 1.2 64 2.7 WNW 19 24 10 13 1017.8 1018.5 0.0
23/04:30pm 7.7 2.7 1.1 63 2.8 WNW 17 24 9 13 1017.8 1018.5 0.0
23/04:00pm 9.1 3.5 1.5 59 3.3 WNW 20 26 11 14 1018.1 1018.7 0.0
23/03:30pm 10.5 4.6 1.6 54 4.0 WNW 22 30 12 16 1017.9 1018.6 0.0
23/03:00pm 10.6 3.6 2.2 56 3.8 WNW 28 39 15 21 1017.9 1018.6 0.0
23/02:30pm 11.1 4.0 1.6 52 4.2 NW 28 37 15 20 1017.9 1018.6 0.0
23/02:00pm 11.5 5.3 2.0 52 4.3 WNW 24 33 13 18 1018.1 1018.7 0.0
23/01:30pm 11.5 4.8 1.7 51 4.4 WNW 26 33 14 18 1018.2 1018.8 0.0
23/01:00pm 10.7 4.1 1.8 54 4.0 NW 26 33 14 18 1018.6 1019.3 0.0
23/12:30pm 10.8 4.6 1.9 54 4.0 NW 24 30 13 16 1019.3 1020.0 0.0
23/12:00pm 9.6 4.3 2.0 59 3.4 NW 19 26 10 14 1019.9 1020.6 0.0
23/11:30am 10.0 5.1 4.0 66 2.8 NW 19 24 10 13 1020.8 1021.5 0.0
23/11:00am 9.5 5.1 4.9 73 2.2 NNW 17 26 9 14 1020.9 1021.7 0.0
23/10:30am 8.7 4.4 5.1 78 1.7 NW 17 22 9 12 1021.8 1022.5 0.0
23/10:00am 8.2 3.8 4.8 79 1.6 NW 17 24 9 13 1021.7 1022.4 0.0
23/09:30am 8.6 4.7 5.2 79 1.6 NW 15 20 8 11 1022.2 1023.0 0.0
23/09:00am 8.3 5.0 4.7 78 1.7 NW 11 15 6 8 1022.1 1022.9 0.0
23/08:30am 6.9 4.1 5.1 88 0.8 NW 9 13 5 7 1021.9 1022.7 0.0
23/08:00am 5.1 1.7 3.8 91 0.6 N 11 13 6 7 1021.4 1022.2 0.0
23/07:30am 4.1 0.1 3.1 93 0.4 NNE 13 15 7 8 1021.2 1022.0 0.0
23/07:00am 3.7 0.1 2.8 94 0.4 NNE 11 13 6 7 1021.4 1022.2 0.0
23/06:30am 5.3 2.8 4.6 95 0.3 NNE 7 9 4 5 1021.6 1022.3 0.0
23/06:00am 5.2 2.7 4.5 95 0.3 N 7 9 4 5 1021.2 1022.0 0.0
23/05:30am 1.6 -1.6 0.9 95 0.3 N 7 9 4 5 1020.9 1021.7 0.0
23/05:00am 1.2 -1.8 0.8 97 0.2 N 6 7 3 4 1021.3 1022.1 0.0
23/04:30am 0.3 -3.1 -0.5 94 0.3 N 7 11 4 6 1021.8 1022.5 0.0
23/04:00am 0.1 -2.0 -0.7 94 0.3 CALM 0 0 0 0 1021.7 1022.4 0.0
23/03:30am 0.1 -2.0 -0.7 94 0.3 CALM 0 0 0 0 1022.1 1022.9 0.0
23/03:00am -0.1 -2.2 -0.7 96 0.2 CALM 0 0 0 0 1022.2 1023.0 0.0
23/02:30am -0.4 -2.6 -1.2 94 0.3 CALM 0 0 0 0 1022.5 1023.3 0.0
23/02:00am -0.1 -2.2 -0.9 94 0.3 CALM 0 0 0 0 1022.5 1023.3 0.0
23/01:30am 1.0 -2.0 0.6 97 0.2 SE 6 7 3 4 1022.9 1023.7 0.0
23/01:00am -0.1 -2.9 -0.7 96 0.2 SE 4 7 2 4 1022.9 1023.7 0.0
23/12:30am -0.7 -2.8 -1.1 97 0.1 CALM 0 7 0 4 1023.1 1023.9 0.0
23/12:00am -0.5 -2.7 -1.3 94 0.3 CALM 0 0 0 0 1023.9 1024.7 0.0
 
Date/Time
EST
Temp
°C
App
Temp
°C
Dew
Point
°C
Rel
Hum
%
Delta-T
°C
Wind Press
QNH
hPa
Press
MSL
hPa
Rain since
9am
mm
Dir  Spd
km/h
Gust
km/h
Spd
kts
Gust
kts
22/11:30pm -0.6 -2.8 -1.2 96 0.2 CALM 0 0 0 0 1023.6 1024.5 0.0
22/11:00pm -1.0 -4.3 -1.6 96 0.2 NW 6 6 3 3 1024.0 1024.8 0.0
22/10:30pm -1.7 -4.1 -3.3 89 0.5 CALM 0 0 0 0 1024.3 1025.1 0.0
22/10:00pm -1.7 -4.1 -3.1 90 0.4 CALM 0 0 0 0 1024.6 1025.5 0.0
22/09:30pm -0.3 -3.9 -2.2 87 0.7 NW 7 9 4 5 1024.7 1025.6 0.0
22/09:00pm 0.0 -2.3 -2.2 85 0.8 CALM 0 0 0 0 1025.0 1025.8 0.0
22/08:30pm 1.1 -1.1 -1.3 84 0.9 CALM 0 0 0 0 1025.0 1025.8 0.0
22/08:00pm 1.3 -0.8 -0.9 85 0.8 CALM 0 4 0 2 1025.0 1025.8 0.0
22/07:30pm 2.6 0.6 0.2 84 1.0 CALM 0 0 0 0 1025.1 1025.9 0.0
22/07:00pm 2.6 -0.6 -0.3 81 1.1 W 6 7 3 4 1025.0 1025.8 0.0
22/06:30pm 3.0 0.4 -1.4 73 1.7 WSW 2 7 1 4 1025.2 1026.0 0.0
22/06:00pm 5.2 2.9 0.2 70 2.0 WSW 2 7 1 4 1025.0 1025.8 0.0
22/05:30pm 7.2 5.3 0.6 63 2.8 CALM 0 0 0 0 1025.0 1025.8 0.0
22/05:00pm 9.3 6.4 1.2 57 3.5 NW 6 7 3 4 1025.0 1025.8 0.0
22/04:30pm 11.1 7.6 1.4 51 4.3 NW 9 15 5 8 1025.0 1025.8 0.0
22/04:00pm 12.0 7.7 1.3 48 4.8 NNW 13 17 7 9 1024.7 1025.6 0.0
22/03:30pm 12.7 8.5 1.4 46 5.1 NW 13 19 7 10 1025.2 1026.0 0.0
22/03:00pm 13.5 9.4 2.4 47 5.1 NW 13 17 7 9 1025.3 1026.1 0.0
22/02:30pm 13.5 8.6 2.1 46 5.3 NW 17 22 9 12 1025.4 1026.2 0.0
22/02:00pm 13.2 10.5 2.7 49 4.9 NNW 6 11 3 6 1025.3 1026.1 0.0
22/01:30pm 12.8 10.0 1.8 47 5.0 WNW 6 13 3 7 1025.5 1026.4 0.0
22/01:00pm 12.4 8.1 1.1 46 5.0 NNW 13 17 7 9 1026.1 1026.9 0.0
22/12:30pm 11.7 7.5 1.9 51 4.4 NNE 13 19 7 10 1026.3 1027.1 0.0
22/12:00pm 11.6 7.2 2.9 55 4.0 N 15 22 8 12 1026.9 1027.8 0.0
22/11:30am 11.2 6.9 3.3 58 3.7 NNE 15 22 8 12 1027.5 1028.4 0.0
22/11:00am 10.7 6.3 5.0 68 2.7 NNE 17 24 9 13 1027.8 1028.7 0.0
22/10:30am 9.8 4.9 4.2 68 2.6 NNE 19 24 10 13 1028.4 1029.3 0.0
22/10:00am 9.5 5.9 4.9 73 2.2 NNE 13 20 7 11 1028.6 1029.5 0.0
22/09:30am 8.1 4.9 4.9 80 1.5 NNE 11 15 6 8 1028.6 1029.5 0.0
22/09:00am 6.5 4.9 6.4 99 0.0 NE 4 9 2 5 1028.5 1029.4 0.2
22/08:30am 2.7 1.1 2.6 99 0.0 CALM 0 0 0 0 1028.4 1029.3 0.2
22/08:11am 0.7 -1.2 0.6 99 0.0 CALM 0 0 0 0 1028.4 1029.3 0.2
22/08:00am -0.1 -2.1 -0.2 99 0.0 CALM 0 0 0 0 1028.4 1029.3 0.0
22/07:53am -0.8 -2.9 -0.9 99 0.0 CALM 0 0 0 0 1028.2 1029.2 0.0
22/07:30am -2.7 -5.1 -3.1 97 0.0 CALM 0 0 0 0 1028.1 1029.0 0.0
22/07:00am -1.8 -4.0 -1.9 99 0.0 CALM 0 0 0 0 1027.8 1028.7 0.0
22/06:57am -2.2 -4.5 -2.3 99 -0.1 CALM 0 0 0 0 1027.7 1028.6 0.0
22/06:30am -1.3 -3.5 -1.4 99 0.0 CALM 0 0 0 0 1027.5 1028.4 0.0
22/06:00am -2.1 -4.4 -2.2 99 -0.1 CALM 0 0 0 0 1027.1 1028.0 0.0
22/05:30am -1.4 -3.6 -1.5 99 0.0 CALM 0 2 0 1 1026.8 1027.7 0.0
22/05:28am -1.2 -3.4 -1.3 99 0.0 CALM 0 2 0 1 1026.8 1027.7 0.0
22/05:00am -2.4 -4.7 -2.5 99 -0.1 CALM 0 0 0 0 1026.7 1027.6 0.0
22/04:30am -1.9 -4.9 -2.0 99 -0.1 SSE 4 7 2 4 1026.8 1027.7 0.0
22/04:00am -3.0 -5.4 -3.3 98 0.0 CALM 0 0 0 0 1026.7 1027.6 0.0
22/03:44am -2.1 -4.4 -2.2 99 -0.1 CALM 0 0 0 0 1026.7 1027.6 0.0
22/03:30am -2.0 -4.3 -2.1 99 -0.1 CALM 0 0 0 0 1026.8 1027.7 0.0
22/03:18am -1.5 -3.7 -1.6 99 0.0 CALM 0 0 0 0 1026.8 1027.7 0.0
22/03:00am -1.7 -3.9 -1.8 99 0.0 CALM 0 0 0 0 1026.8 1027.7 0.0
22/02:30am -1.5 -3.7 -1.6 99 0.0 CALM 0 0 0 0 1026.8 1027.7 0.0
22/02:00am -1.0 -3.1 -1.1 99 0.0 CALM 0 0 0 0 1027.0 1027.9 0.0
22/01:35am -1.0 -3.1 -1.1 99 0.0 CALM 0 0 0 0 1026.9 1027.8 0.0
22/01:30am -1.6 -3.8 -1.7 99 0.0 CALM 0 0 0 0 1026.9 1027.8 0.0
22/01:00am -1.0 -3.2 -1.3 98 0.1 CALM 0 0 0 0 1027.0 1027.9 0.0
22/12:54am -0.6 -2.7 -0.9 98 0.1 CALM 0 0 0 0 1027.0 1027.9 0.0
22/12:46am -0.5 -2.6 -0.6 99 0.0 CALM 0 0 0 0 1027.1 1028.0 0.0
22/12:30am 0.2 -1.8 0.1 99 0.0 CALM 0 2 0 1 1027.1 1028.0 0.0
22/12:02am 0.1 -1.9 -0.2 98 0.1 CALM 0 0 0 0 1027.4 1028.3 0.0
22/12:00am 0.4 -1.6 0.1 98 0.1 CALM 0 0 0 0 1027.4 1028.3 0.0
 
Date/Time
EST
Temp
°C
App
Temp
°C
Dew
Point
°C
Rel
Hum
%
Delta-T
°C
Wind Press
QNH
hPa
Press
MSL
hPa
Rain since
9am
mm
Dir  Spd
km/h
Gust
km/h
Spd
kts
Gust
kts
21/11:44pm 0.2 -1.8 -0.1 98 0.1 CALM 0 0 0 0 1027.4 1028.3 0.0
21/11:30pm 0.1 -1.9 -0.3 97 0.2 CALM 0 0 0 0 1027.6 1028.5 0.0
21/11:24pm 0.3 -1.7 0.2 99 0.0 CALM 0 0 0 0 1027.6 1028.5 0.0
21/11:00pm 0.0 -2.0 -0.4 97 0.2 CALM 0 0 0 0 1027.6 1028.5 0.0
21/10:30pm -0.2 -2.4 -1.3 92 0.4 CALM 0 0 0 0 1027.7 1028.6 0.0
21/10:00pm 1.0 -0.9 0.3 95 0.3 CALM 0 0 0 0 1028.1 1029.0 0.0
21/09:30pm 1.0 -1.0 -0.3 91 0.5 CALM 0 0 0 0 1028.0 1028.9 0.0
21/09:00pm 1.3 -2.0 0.4 94 0.4 ENE 7 9 4 5 1027.8 1028.7 0.0
21/08:30pm 0.9 -1.1 0.0 94 0.3 CALM 0 0 0 0 1027.9 1028.8 0.0
21/08:00pm 0.7 -2.7 -0.6 91 0.5 ESE 7 9 4 5 1027.8 1028.7 0.0
21/07:30pm 1.7 -1.9 0.5 92 0.5 S 9 11 5 6 1027.7 1028.6 0.0
21/07:00pm 2.4 -0.9 0.3 86 0.8 S 7 9 4 5 1027.5 1028.4 0.0
21/06:30pm 3.2 -1.1 0.8 84 1.0 S 13 13 7 7 1027.1 1028.0 0.0
21/06:00pm 4.4 0.1 1.1 79 1.4 S 13 15 7 8 1026.8 1027.7 0.0
21/05:30pm 5.5 1.4 -3.1 54 3.2 SSE 9 17 5 9 1026.5 1027.4 0.0
21/05:00pm 9.9 7.4 -4.1 37 5.4 CALM 0 0 0 0 1026.1 1026.9 0.0
21/04:30pm 12.7 8.9 -3.5 32 6.6 NE 7 9 4 5 1025.8 1026.7 0.0
21/04:00pm 13.5 9.3 -3.7 30 6.9 NE 9 17 5 9 1025.4 1026.2 0.0
21/03:30pm 14.4 9.4 -3.9 28 7.5 NE 13 20 7 11 1025.3 1026.1 0.0
21/03:00pm 14.8 11.5 -1.3 33 6.9 SSE 6 13 3 7 1025.3 1026.1 0.0
21/02:30pm 14.7 10.5 -1.0 34 6.8 S 11 15 6 8 1025.3 1026.1 0.0
21/02:00pm 14.9 10.2 -4.9 25 7.9 SSE 11 19 6 10 1025.4 1026.2 0.0
21/01:30pm 15.2 10.2 -4.7 25 8.0 SSE 13 19 7 10 1025.5 1026.4 0.0
21/01:00pm 15.3 9.6 -3.6 27 7.8 SE 17 22 9 12 1025.7 1026.6 0.0
21/12:30pm 14.2 9.0 -2.7 31 7.1 S 15 20 8 11 1026.1 1026.9 0.0
21/12:00pm 13.3 8.1 -3.0 32 6.7 S 15 20 8 11 1026.4 1027.3 0.0
21/11:30am 12.9 7.1 -4.7 29 6.9 SSE 17 24 9 13 1026.7 1027.6 0.0
21/11:00am 12.6 6.1 -6.4 26 7.2 S 20 26 11 14 1027.0 1027.9 0.0
21/10:30am 11.2 4.4 -5.3 31 6.3 S 22 28 12 15 1027.1 1028.0 0.0
21/10:00am 10.2 4.9 -0.6 47 4.5 SSW 17 22 9 12 1027.0 1027.9 0.0
21/09:30am 8.5 3.7 0.2 56 3.5 SSW 15 20 8 11 1026.9 1027.8 0.0
21/09:00am 6.7 2.1 1.6 70 2.2 SW 15 20 8 11 1026.5 1027.4 0.2
21/08:30am 4.9 0.7 1.7 80 1.4 SSW 13 17 7 9 1026.3 1027.1 0.2
21/08:00am 1.6 -2.8 0.3 91 0.5 SSW 13 15 7 8 1026.1 1026.9 0.2
21/07:30am -1.6 -6.1 -3.2 89 0.5 SSW 11 13 6 7 1025.8 1026.7 0.2
21/07:00am -2.7 -7.2 -3.1 97 0.0 SSW 11 15 6 8 1025.6 1026.5 0.2
21/06:45am -3.4 -8.3 -3.8 97 0.0 S 13 13 7 7 1025.4 1026.2 0.2
21/06:30am -2.8 -7.3 -3.1 98 0.0 S 11 13 6 7 1025.4 1026.2 0.2
21/06:14am -3.4 -7.2 -4.1 95 0.1 S 7 9 4 5 1025.4 1026.2 0.2
21/06:00am -3.0 -7.2 -4.0 93 0.2 S 9 11 5 6 1025.3 1026.1 0.2
21/05:30am 0.9 -3.1 0.8 99 0.0 SSW 11 13 6 7 1025.1 1025.9 0.2
21/05:11am 1.7 -2.5 1.6 99 0.0 SSW 13 15 7 8 1025.1 1025.9 0.2
21/05:00am 1.4 -2.9 1.3 99 0.0 SW 13 17 7 9 1025.1 1025.9 0.2
21/04:30am -3.2 -6.9 -3.3 99 -0.1 SW 7 9 4 5 1024.8 1025.7 0.2
21/04:00am -3.0 -7.1 -3.3 98 0.0 SW 9 13 5 7 1025.0 1025.8 0.2
21/03:30am -2.4 -6.4 -2.5 99 -0.1 SW 9 9 5 5 1024.8 1025.7 0.2
21/03:00am -2.1 -6.1 -2.4 98 0.0 SSW 9 9 5 5 1025.2 1026.0 0.2
21/02:30am -0.8 -4.6 -0.9 99 0.0 SSW 9 9 5 5 1025.3 1026.1 0.2
21/02:00am -0.4 -4.2 -0.5 99 0.0 SSW 9 9 5 5 1025.4 1026.2 0.2
21/01:42am 1.7 -1.7 1.6 99 0.0 SSW 9 13 5 7 1025.5 1026.4 0.2
21/01:30am 2.6 -1.5 2.5 99 0.0 SSW 13 15 7 8 1025.7 1026.6 0.2
21/01:11am 2.9 -1.1 2.8 99 0.0 SSW 13 15 7 8 1025.7 1026.6 0.2
21/01:00am 1.5 -2.7 1.4 99 0.0 SSW 13 15 7 8 1025.8 1026.7 0.2
21/12:30am -0.5 -4.7 -0.6 99 0.0 SW 11 13 6 7 1026.1 1026.9 0.2
21/12:00am 0.5 -2.8 0.4 99 0.0 WSW 7 9 4 5 1026.4 1027.3 0.2
 
Date/Time
EST
Temp
°C
App
Temp
°C
Dew
Point
°C
Rel
Hum
%
Delta-T
°C
Wind Press
QNH
hPa
Press
MSL
hPa
Rain since
9am
mm
Dir  Spd
km/h
Gust
km/h
Spd
kts
Gust
kts
20/11:30pm -0.8 -4.3 -1.5 95 0.2 WSW 7 7 4 4 1026.8 1027.7 0.2
20/11:00pm 0.5 -3.3 -0.4 94 0.3 WSW 9 9 5 5 1027.0 1027.9 0.2
20/10:48pm 0.9 -2.4 -0.2 92 0.4 SW 7 9 4 5 1026.9 1027.8 0.2
20/10:30pm 2.7 -0.6 2.3 97 0.2 SW 9 11 5 6 1027.0 1027.9 0.2
20/10:00pm 3.8 0.3 3.4 97 0.2 SW 11 13 6 7 1027.1 1028.0 0.2
20/09:30pm 3.8 0.3 3.4 97 0.2 SW 11 11 6 6 1026.9 1027.8 0.2
20/09:00pm 4.6 1.2 4.0 96 0.3 SW 11 13 6 7 1027.1 1028.0 0.2
20/08:30pm 5.2 1.5 4.6 96 0.3 SW 13 13 7 7 1027.3 1028.1 0.2

Other Formats:

Comma delimited format used in spreadsheet applications
http://www.bom.gov.au/fwo/IDN60801/IDN60801.95726.axf

JavaScript Object Notation format (JSON) in row-major order
http://www.bom.gov.au/fwo/IDN60801/IDN60801.95726.json